D/T METAR WX W/DIR W/SPE G/SPE TEMP DEWP
5/06/20 05:20 EGSH 050420Z AUTO 26010KT 9999 FEW025/// 10/08 Q0992 W (260°) 11.5mph 10°C 8°C
5/06/20 04:20 EGSH 050320Z AUTO 25009KT 9999 FEW009/// BKN014/// BKN018/// 10/09 Q0993 WSW (250°) 10.4mph 10°C 9°C
5/06/20 03:50 EGSH 050250Z AUTO 25010KT 9999 FEW010/// SCT015/// BKN020/// 10/09 Q0993 WSW (250°) 11.5mph 10°C 9°C
5/06/20 03:20 EGSH 050220Z AUTO 25010KT 9999 FEW009/// SCT015/// BKN038/// 10/09 Q0994 WSW (250°) 11.5mph 10°C 9°C
5/06/20 02:50 EGSH 050150Z AUTO 25009KT 9999 FEW046/// 10/09 Q0995 WSW (250°) 10.4mph 10°C 9°C
5/06/20 02:20 EGSH 050120Z AUTO 23008KT 9999 FEW013/// 10/09 Q0995 SW (230°) 9.2mph 10°C 9°C
5/06/20 01:50 EGSH 050050Z AUTO 23007KT 9999 NCD 10/08 Q0996 SW (230°) 8.1mph 10°C 8°C
5/06/20 01:20 EGSH 050020Z AUTO 22006KT 9999 NCD 10/08 Q0996 SW (220°) 6.9mph 10°C 8°C
5/06/20 00:50 EGSH 042350Z AUTO 22006KT 9999 FEW040/// 10/08 Q0997 SW (220°) 6.9mph 10°C 8°C
5/06/20 00:20 EGSH 042320Z AUTO 22006KT 7000 -RA BKN033/// BKN039/// BKN047/// 10/08 Q0997 -RA SW (220°) 6.9mph 10°C 8°C
4/06/20 23:50 EGSH 042250Z AUTO 22007KT 9999 FEW007/// SCT020/// 10/08 Q0997 SW (220°) 8.1mph 10°C 8°C
4/06/20 23:20 EGSH 042220Z AUTO 22006KT 9999 NCD 10/08 Q0998 SW (220°) 6.9mph 10°C 8°C
4/06/20 22:50 EGSH 042150Z AUTO 20006KT 9999 NCD 10/08 Q0998 SSW (200°) 6.9mph 10°C 8°C
4/06/20 22:20 EGSH 042120Z AUTO 22004KT 9999 NCD 10/07 Q0999 SW (220°) 4.6mph 10°C 7°C
4/06/20 21:50 EGSH 042050Z AUTO 22004KT 9999 NCD 09/06 Q0999 SW (220°) 4.6mph 9°C 6°C
4/06/20 21:20 EGSH 042020Z AUTO 22002KT 9999 NCD 10/06 Q0999 SW (220°) 2.3mph 10°C 6°C
4/06/20 20:50 EGSH 041950Z AUTO 29001KT 9999 NCD 11/06 Q0999 WNW (290°) 1.2mph 11°C 6°C
4/06/20 20:20 EGSH 041920Z AUTO VRB02KT 9999 NCD 11/06 Q0999 N (0°) 2.3mph 11°C 6°C
4/06/20 19:50 EGSH 041850Z AUTO VRB03KT 9999 NCD 12/06 Q1000 N (0°) 3.5mph 12°C 6°C
4/06/20 19:20 EGSH 041820Z AUTO 31005KT 280V360 9999 NCD 12/06 Q1000 NW (310°) 5.8mph 12°C 6°C
4/06/20 18:50 EGSH 041750Z AUTO 33006KT 270V010 9999 FEW042/// 12/05 Q1000 NNW (330°) 6.9mph 12°C 5°C
4/06/20 18:20 EGSH 041720Z AUTO 32005KT 290V010 9999 FEW029/// SCT038/// BKN045/// 11/06 Q1000 NOSIG NW (320°) 5.8mph 11°C 6°C
4/06/20 17:50 EGSH 041650Z 31008KT 280V340 9999 -RADZ SCT026 BKN035 11/08 Q1000 NOSIG -RA -DZ NW (310°) 9.2mph 11°C 8°C
4/06/20 17:20 EGSH 041620Z 31006KT 270V350 9999 -RADZ SCT026 BKN035 10/08 Q1001 -RA -DZ NW (310°) 6.9mph 10°C 8°C
4/06/20 16:20 EGSH 041520Z 31007KT 280V350 9999 -RADZ FEW020 BKN025 10/07 Q1001 -RA -DZ NW (310°) 8.1mph 10°C 7°C
4/06/20 15:50 EGSH 041450Z 33009KT 290V010 9999 -RADZ FEW035 BKN041 12/06 Q1001 -RA -DZ NNW (330°) 10.4mph 12°C 6°C
4/06/20 15:20 EGSH 041420Z 32010KT 290V360 9999 -RADZ FEW035 BKN041 12/05 Q1001 NOSIG -RA -DZ NW (320°) 11.5mph 12°C 5°C
4/06/20 14:20 EGSH 041320Z 33009KT 290V020 9999 SCT032 BKN047 13/05 Q1001 NNW (330°) 10.4mph 13°C 5°C
4/06/20 13:50 EGSH 041250Z 34011KT 300V030 9999 SCT032 BKN047 13/06 Q1001 NOSIG NNW (340°) 12.7mph 13°C 6°C
4/06/20 13:20 EGSH 041220Z 34011KT 290V020 9999 SCT032 BKN047 14/05 Q1001 NOSIG NNW (340°) 12.7mph 14°C 5°C
4/06/20 12:50 EGSH 041150Z 36009KT 320V050 9999 SCT032 BKN047 13/06 Q1001 NOSIG N (360°) 10.4mph 13°C 6°C
4/06/20 11:50 EGSH 041050Z 35009KT 310V030 9999 SCT028 BKN037 12/05 Q1002 NOSIG N (350°) 10.4mph 12°C 5°C
4/06/20 11:20 EGSH 041020Z 36011KT 310V040 9999 -RADZ FEW020 BKN034 12/06 Q1002 -RA -DZ N (360°) 12.7mph 12°C 6°C
4/06/20 10:50 EGSH 040950Z 34010KT 310V020 9999 FEW020 BKN034 12/06 Q1002 NNW (340°) 11.5mph 12°C 6°C
4/06/20 10:20 EGSH 040920Z 33010KT 280V020 9999 FEW020 BKN034 12/07 Q1002 NOSIG NNW (330°) 11.5mph 12°C 7°C
4/06/20 09:50 EGSH 040850Z 33010KT 290V020 9999 SCT021 BKN031 12/07 Q1002 NOSIG NNW (330°) 11.5mph 12°C 7°C
4/06/20 09:20 EGSH 040820Z 34011KT 300V030 9999 SCT021 BKN031 12/06 Q1002 NOSIG NNW (340°) 12.7mph 12°C 6°C
4/06/20 08:50 EGSH 040750Z 35010KT 320V060 9999 SCT029 12/07 Q1002 NOSIG N (350°) 11.5mph 12°C 7°C
4/06/20 08:20 EGSH 040720Z 34009KT 290V040 9999 FEW035 12/07 Q1003 NOSIG NNW (340°) 10.4mph 12°C 7°C
4/06/20 07:50 EGSH 040650Z AUTO 35011G21KT 310V020 9999 FEW039/// 12/08 Q1003 N (350°) 12.7mph 24.2mph 12°C 8°C
4/06/20 07:20 EGSH 040620Z AUTO 35012KT 310V020 9999 SCT016/// BKN023/// 12/08 Q1003 N (350°) 13.8mph 12°C 8°C
4/06/20 06:20 EGSH 040520Z AUTO 36006KT 320V030 9000 SCT010/// BKN015/// OVC022/// 11/10 Q1003 N (360°) 6.9mph 11°C 10°C
4/06/20 05:50 EGSH 040450Z AUTO 36009KT 320V040 5000 -RA FEW007/// SCT012/// BKN025/// 11/10 Q1003 RERA -RA N (360°) 10.4mph 11°C 10°C
4/06/20 05:20 EGSH 040420Z AUTO 35008KT 310V030 9999 FEW012/// SCT023/// 12/09 Q1003 N (350°) 9.2mph 12°C 9°C
4/06/20 04:50 EGSH 040350Z AUTO 36008KT 330V040 9999 SCT012/// BKN018/// BKN029/// 12/10 Q1003 N (360°) 9.2mph 12°C 10°C
4/06/20 04:20 EGSH 040320Z AUTO 35007KT 320V020 9999 FEW014/// SCT024/// 12/09 Q1003 N (350°) 8.1mph 12°C 9°C
4/06/20 03:50 EGSH 040250Z AUTO 35007KT 310V020 9999 FEW014/// SCT019/// BKN024/// 12/09 Q1004 N (350°) 8.1mph 12°C 9°C
4/06/20 03:20 EGSH 040220Z AUTO 35006KT 310V030 9999 SCT013/// OVC018/// 12/09 Q1004 N (350°) 6.9mph 12°C 9°C
4/06/20 02:50 EGSH 040150Z AUTO 34006KT 300V020 9999 BKN013/// OVC017/// 12/10 Q1004 NNW (340°) 6.9mph 12°C 10°C
4/06/20 02:20 EGSH 040120Z AUTO 35007KT 310V050 9000 BKN011/// OVC017/// 12/10 Q1005 N (350°) 8.1mph 12°C 10°C
4/06/20 01:50 EGSH 040050Z AUTO 35006KT 310V030 9999 BKN008/// OVC012/// 12/10 Q1005 N (350°) 6.9mph 12°C 10°C
4/06/20 01:20 EGSH 040020Z AUTO 35008KT 310V030 7000 FEW005/// BKN008/// OVC012/// 12/10 Q1005 N (350°) 9.2mph 12°C 10°C
4/06/20 00:50 EGSH 032350Z AUTO 36007KT 320V030 9999 BKN007/// OVC011/// 12/11 Q1006 N (360°) 8.1mph 12°C 11°C
3/06/20 23:50 EGSH 032250Z AUTO 36007KT 330V060 9000 BKN007/// OVC012/// 12/11 Q1006 N (360°) 8.1mph 12°C 11°C
3/06/20 23:20 EGSH 032220Z AUTO 36009KT 320V040 6000 BKN005/// OVC008/// 12/11 Q1006 N (360°) 10.4mph 12°C 11°C
3/06/20 22:20 EGSH 032120Z AUTO 36008KT 320V030 9000 BKN010/// OVC024/// 13/11 Q1007 N (360°) 9.2mph 13°C 11°C
3/06/20 21:50 EGSH 032050Z AUTO 36009KT 330V030 9000 BKN010/// OVC019/// 13/10 Q1007 N (360°) 10.4mph 13°C 10°C
3/06/20 21:20 EGSH 032020Z AUTO 01008KT 330V050 9999 BKN010/// BKN019/// OVC024/// 13/11 Q1007 N (10°) 9.2mph 13°C 11°C
3/06/20 20:50 EGSH 031950Z AUTO 36008KT 320V040 9999 SCT013/// BKN017/// BKN022/// 13/10 Q1007 N (360°) 9.2mph 13°C 10°C
3/06/20 20:20 EGSH 031920Z AUTO 36009KT 320V030 9999 SCT013/// BKN018/// OVC023/// 14/10 Q1007 N (360°) 10.4mph 14°C 10°C
3/06/20 19:20 EGSH 031820Z AUTO 36010KT 320V040 9999 SCT013/// BKN018/// 14/10 Q1007 N (360°) 11.5mph 14°C 10°C
3/06/20 18:50 EGSH 031750Z AUTO 36011G21KT 310V030 9999 BKN016/// 14/10 Q1007 N (360°) 12.7mph 24.2mph 14°C 10°C
3/06/20 18:20 EGSH 031720Z AUTO 36010KT 320V040 8000 FEW018/// 15/10 Q1007 N (360°) 11.5mph 15°C 10°C
3/06/20 17:20 EGSH 031620Z 36011KT 320V050 9999 SCT021 16/09 Q1008 N (360°) 12.7mph 16°C 9°C
3/06/20 16:50 EGSH 031550Z 36011KT 330V040 9999 FEW029 16/09 Q1008 N (360°) 12.7mph 16°C 9°C
3/06/20 16:20 EGSH 031520Z 01010KT 340V050 9999 FEW029 17/09 Q1008 N (10°) 11.5mph 17°C 9°C
3/06/20 15:50 EGSH 031450Z 02011KT 350V050 9999 FEW029 16/09 Q1008 NNE (20°) 12.7mph 16°C 9°C
3/06/20 15:20 EGSH 031420Z 01009KT 330V040 9999 FEW045 17/09 Q1008 N (10°) 10.4mph 17°C 9°C
3/06/20 14:20 EGSH 031320Z 02011KT 350V060 9999 FEW045 17/08 Q1008 NNE (20°) 12.7mph 17°C 8°C
3/06/20 13:50 EGSH 031250Z 01010KT 320V060 9999 FEW045 17/07 Q1008 NOSIG N (10°) 11.5mph 17°C 7°C
3/06/20 13:20 EGSH 031220Z 02010KT 360V060 9999 FEW045 17/09 Q1008 NNE (20°) 11.5mph 17°C 9°C
3/06/20 12:20 EGSH 031120Z 02010KT 330V060 9999 FEW045 17/09 Q1009 NNE (20°) 11.5mph 17°C 9°C
3/06/20 11:50 EGSH 031050Z 01009KT 330V050 9999 FEW045 17/09 Q1009 N (10°) 10.4mph 17°C 9°C
3/06/20 11:20 EGSH 031020Z 02008KT 340V060 9999 FEW045 16/10 Q1009 NOSIG NNE (20°) 9.2mph 16°C 10°C
3/06/20 10:50 EGSH 030950Z 01007KT 330V050 9999 FEW045 16/11 Q1009 NOSIG N (10°) 8.1mph 16°C 11°C
3/06/20 10:20 EGSH 030920Z 36007KT 320V050 9999 FEW045 16/11 Q1009 N (360°) 8.1mph 16°C 11°C
3/06/20 09:50 EGSH 030850Z 01007KT 340V060 9999 FEW045 16/10 Q1009 NOSIG N (10°) 8.1mph 16°C 10°C
3/06/20 09:20 EGSH 030820Z 34006KT 300V030 9999 FEW045 16/09 Q1009 NOSIG NNW (340°) 6.9mph 16°C 9°C
3/06/20 08:50 EGSH 030750Z 01006KT 330V040 9999 FEW045 16/08 Q1009 NOSIG N (10°) 6.9mph 16°C 8°C
3/06/20 08:20 EGSH 030720Z 01006KT CAVOK 16/10 Q1009 NOSIG N (10°) 6.9mph 16°C 10°C
3/06/20 07:50 EGSH 030650Z AUTO 02005KT 340V060 9999 NCD 15/10 Q1009 NNE (20°) 5.8mph 15°C 10°C
3/06/20 07:20 EGSH 030620Z AUTO 02003KT 9999 NCD 15/11 Q1009 NNE (20°) 3.5mph 15°C 11°C
3/06/20 06:50 EGSH 030550Z AUTO VRB03KT 9999 NCD 14/11 Q1009 N (0°) 3.5mph 14°C 11°C
3/06/20 06:20 EGSH 030520Z AUTO VRB03KT 9999 NCD 13/11 Q1010 N (0°) 3.5mph 13°C 11°C
3/06/20 05:50 EGSH 030450Z AUTO VRB03KT 7000 NCD 12/11 Q1010 N (0°) 3.5mph 12°C 11°C
3/06/20 05:20 EGSH 030420Z AUTO 29004KT 6000 NCD 11/10 Q1010 WNW (290°) 4.6mph 11°C 10°C
3/06/20 04:50 EGSH 030350Z AUTO VRB02KT 7000 NCD 12/10 Q1010 N (0°) 2.3mph 12°C 10°C
3/06/20 04:20 EGSH 030320Z AUTO VRB02KT 8000 NCD 11/10 Q1010 N (0°) 2.3mph 11°C 10°C
3/06/20 03:50 EGSH 030250Z AUTO VRB01KT 9999 NCD 12/10 Q1010 N (0°) 1.2mph 12°C 10°C
3/06/20 03:20 EGSH 030220Z AUTO 32004KT 280V360 9999 NCD 12/10 Q1011 NW (320°) 4.6mph 12°C 10°C
3/06/20 02:50 EGSH 030150Z AUTO 33003KT 9999 NCD 12/10 Q1011 NNW (330°) 3.5mph 12°C 10°C
3/06/20 02:20 EGSH 030120Z AUTO 31003KT 9999 NCD 12/09 Q1011 NW (310°) 3.5mph 12°C 9°C
3/06/20 01:50 EGSH 030050Z AUTO 33004KT 9999 NCD 12/09 Q1012 NNW (330°) 4.6mph 12°C 9°C
3/06/20 01:20 EGSH 030020Z AUTO 31003KT 9999 NCD 12/07 Q1012 NW (310°) 3.5mph 12°C 7°C
3/06/20 00:50 EGSH 022350Z AUTO 33003KT 9999 NCD 12/07 Q1012 NNW (330°) 3.5mph 12°C 7°C
3/06/20 00:20 EGSH 022320Z AUTO 34003KT 9999 NCD 12/07 Q1013 NNW (340°) 3.5mph 12°C 7°C